Time;durP1;ratioP1;P1;durP2;ratioP2;P2;SDS_P1;SDS_P2;PMS_P1;PMS_P2;Temp;Humidity;BMP_temperature;BMP_pressure;BME280_temperature;BME280_humidity;BME280_pressure;Samples;Min_cycle;Max_cycle;Signal;HPM_P1;HPM_P2
2023/10/29 00:00:44;;;;;;;11.50;5.35;;;11.70;99.90;;;;;;5013541;28;20638;-63
2023/10/29 00:03:11;;;;;;;8.32;4.97;;;11.70;99.90;;;;;;5031237;28;20187;-61
2023/10/29 00:05:37;;;;;;;8.75;5.63;;;11.70;99.90;;;;;;5031777;28;20204;-63
2023/10/29 00:08:03;;;;;;;11.32;5.63;;;11.70;99.90;;;;;;5031192;28;20234;-64
2023/10/29 00:10:29;;;;;;;9.20;5.53;;;11.70;99.90;;;;;;5034964;28;20188;-61
2023/10/29 00:12:55;;;;;;;10.65;5.53;;;11.80;99.90;;;;;;5035728;28;20641;-69
2023/10/29 00:15:21;;;;;;;9.32;5.88;;;11.80;99.90;;;;;;5017339;28;20666;-65
2023/10/29 00:17:47;;;;;;;8.85;6.10;;;11.80;99.90;;;;;;5035207;28;20176;-61
2023/10/29 00:20:13;;;;;;;10.05;6.20;;;11.80;99.90;;;;;;5034683;28;20598;-66
2023/10/29 00:22:39;;;;;;;12.45;6.20;;;11.80;99.90;;;;;;5035038;28;20223;-64
2023/10/29 00:25:05;;;;;;;7.25;6.18;;;11.80;99.90;;;;;;5034898;28;20647;-60
2023/10/29 00:27:31;;;;;;;9.25;6.25;;;11.80;99.90;;;;;;5017346;28;20184;-70
2023/10/29 00:29:57;;;;;;;10.85;6.95;;;11.80;99.90;;;;;;5034933;28;20233;-64
2023/10/29 00:32:25;;;;;;;8.75;6.40;;;11.80;99.90;;;;;;5034594;28;20522;-63
2023/10/29 00:34:51;;;;;;;12.45;6.47;;;11.80;99.90;;;;;;5034829;28;20254;-63
2023/10/29 00:37:19;;;;;;;10.63;6.60;;;11.80;99.90;;;;;;5034746;28;20270;-61
2023/10/29 00:39:45;;;;;;;9.90;6.15;;;11.80;99.90;;;;;;5034856;28;20191;-61
2023/10/29 00:42:11;;;;;;;10.52;6.13;;;11.80;99.90;;;;;;5034795;28;20176;-64
2023/10/29 00:44:37;;;;;;;9.85;6.57;;;11.80;99.90;;;;;;5034917;28;20310;-59
2023/10/29 00:47:05;;;;;;;9.38;6.82;;;11.80;99.90;;;;;;5016990;28;20198;-66
2023/10/29 00:49:32;;;;;;;8.90;6.50;;;11.80;99.90;;;;;;5016971;28;20190;-67
2023/10/29 00:51:59;;;;;;;8.32;6.53;;;11.80;99.90;;;;;;5017088;28;20188;-65
2023/10/29 00:54:26;;;;;;;10.02;6.50;;;11.80;99.90;;;;;;5034337;28;20251;-61
2023/10/29 00:56:53;;;;;;;11.82;6.35;;;11.80;99.90;;;;;;5017024;28;20228;-65
2023/10/29 00:59:21;;;;;;;11.00;6.60;;;11.80;99.90;;;;;;5034646;28;20176;-63
2023/10/29 01:01:48;;;;;;;9.48;5.80;;;11.80;99.90;;;;;;5034418;28;20189;-62
2023/10/29 01:04:15;;;;;;;8.20;5.68;;;11.80;99.90;;;;;;5016817;28;20168;-66
2023/10/29 01:06:44;;;;;;;7.50;5.40;;;11.80;99.90;;;;;;5034240;28;20180;-60
2023/10/29 01:09:11;;;;;;;10.60;5.80;;;11.80;99.90;;;;;;5033999;28;20232;-60
2023/10/29 01:11:38;;;;;;;10.27;5.93;;;11.80;99.90;;;;;;5016758;28;20199;-60
2023/10/29 01:14:04;;;;;;;6.60;5.88;;;11.80;99.90;;;;;;5016166;28;20251;-60
2023/10/29 01:16:33;;;;;;;8.75;5.57;;;11.80;99.90;;;;;;5016913;28;20212;-61
2023/10/29 01:18:59;;;;;;;6.80;5.75;;;11.80;99.90;;;;;;5033951;28;20303;-64
2023/10/29 01:21:28;;;;;;;5.85;5.25;;;11.90;99.90;;;;;;5032781;28;20172;-62
2023/10/29 01:23:54;;;;;;;6.45;5.80;;;11.90;99.90;;;;;;5015949;28;20635;-65
2023/10/29 01:26:20;;;;;;;7.30;5.53;;;11.90;99.90;;;;;;5016478;28;20250;-60
2023/10/29 01:28:46;;;;;;;7.22;5.72;;;11.90;99.90;;;;;;5033899;28;20183;-63
2023/10/29 01:31:12;;;;;;;9.07;6.20;;;11.90;99.90;;;;;;4999746;28;20183;-63
2023/10/29 01:33:38;;;;;;;9.40;6.22;;;11.90;99.90;;;;;;5015846;28;20273;-60
2023/10/29 01:36:05;;;;;;;10.48;5.63;;;11.90;99.90;;;;;;5033752;28;20285;-63
2023/10/29 01:38:32;;;;;;;8.27;6.45;;;12.00;99.90;;;;;;5015724;28;20176;-63
2023/10/29 01:40:58;;;;;;;10.05;6.93;;;12.00;99.90;;;;;;5033957;28;20212;-63
2023/10/29 01:43:24;;;;;;;8.55;6.50;;;12.00;99.90;;;;;;5033260;28;20195;-64
2023/10/29 01:45:50;;;;;;;9.50;6.28;;;12.00;99.90;;;;;;5033622;28;20184;-64
2023/10/29 01:48:16;;;;;;;7.60;6.07;;;12.00;99.90;;;;;;5015864;28;20184;-62
2023/10/29 01:50:42;;;;;;;9.48;5.78;;;12.00;99.90;;;;;;5033489;28;20684;-62
2023/10/29 01:53:08;;;;;;;7.13;5.65;;;12.10;99.90;;;;;;5015509;28;20211;-61
2023/10/29 01:55:37;;;;;;;6.90;5.63;;;12.10;99.90;;;;;;5033327;28;20326;-65
2023/10/29 01:58:04;;;;;;;8.93;6.72;;;12.10;99.90;;;;;;5015460;28;20208;-61
2023/10/29 02:00:30;;;;;;;7.30;6.15;;;12.10;99.90;;;;;;5016175;28;20230;-61
2023/10/29 02:02:57;;;;;;;7.60;5.60;;;12.20;99.90;;;;;;5015408;28;20188;-61
2023/10/29 02:05:23;;;;;;;9.48;5.70;;;12.20;99.90;;;;;;5033608;28;20223;-60
2023/10/29 02:07:49;;;;;;;7.03;5.32;;;12.20;99.90;;;;;;5031807;28;20270;-62
2023/10/29 02:10:15;;;;;;;9.63;6.35;;;12.30;99.90;;;;;;5015746;28;20634;-63
2023/10/29 02:12:41;;;;;;;6.53;5.80;;;12.40;99.90;;;;;;5032823;28;20184;-61
2023/10/29 02:15:07;;;;;;;6.97;5.88;;;12.40;99.90;;;;;;5015276;28;20222;-61
2023/10/29 02:17:33;;;;;;;9.07;5.70;;;12.40;99.90;;;;;;5032889;28;20299;-61
2023/10/29 02:19:59;;;;;;;8.40;6.00;;;12.50;99.90;;;;;;5032765;28;20191;-60
2023/10/29 02:22:28;;;;;;;6.90;5.95;;;12.50;99.90;;;;;;5032730;28;20751;-64
2023/10/29 02:24:54;;;;;;;8.07;5.82;;;12.50;99.90;;;;;;5032907;28;20180;-66
2023/10/29 02:27:20;;;;;;;7.82;5.40;;;12.60;99.90;;;;;;5033051;28;20176;-62
2023/10/29 02:29:46;;;;;;;6.90;5.50;;;12.60;99.90;;;;;;5032947;28;20187;-59
2023/10/29 02:32:12;;;;;;;8.90;5.78;;;12.70;99.90;;;;;;5032195;28;20188;-61
2023/10/29 02:34:38;;;;;;;10.20;6.00;;;12.70;99.90;;;;;;5032965;28;20624;-63
2023/10/29 02:37:04;;;;;;;7.13;5.57;;;12.70;99.90;;;;;;5033090;28;20184;-62
2023/10/29 02:39:30;;;;;;;7.72;5.47;;;12.70;99.90;;;;;;5032457;28;20180;-65
2023/10/29 02:41:56;;;;;;;9.10;5.78;;;12.70;99.90;;;;;;5015099;28;20260;-61
2023/10/29 02:44:22;;;;;;;6.25;5.65;;;12.80;99.90;;;;;;5014834;28;20184;-61
2023/10/29 02:46:47;;;;;;;6.35;4.97;;;12.80;99.90;;;;;;5032562;28;20655;-61
2023/10/29 02:49:14;;;;;;;6.68;5.00;;;12.80;99.90;;;;;;5032540;28;20180;-60
2023/10/29 02:51:40;;;;;;;7.90;4.88;;;12.90;99.90;;;;;;5032893;28;20179;-60
2023/10/29 02:54:06;;;;;;;6.65;4.47;;;12.90;99.90;;;;;;5014573;28;20176;-61
2023/10/29 02:56:32;;;;;;;6.45;4.50;;;12.90;99.90;;;;;;5032007;28;20239;-61
2023/10/29 02:58:58;;;;;;;7.68;4.38;;;12.90;99.90;;;;;;5032386;28;20210;-61
2023/10/29 03:01:24;;;;;;;6.93;3.97;;;13.00;99.90;;;;;;5014768;28;20683;-60
2023/10/29 03:03:50;;;;;;;6.93;4.28;;;13.00;99.90;;;;;;5032685;28;20276;-60
2023/10/29 03:06:16;;;;;;;6.50;3.63;;;13.00;99.90;;;;;;4998447;28;20678;-65
2023/10/29 03:08:42;;;;;;;6.70;3.75;;;13.00;99.90;;;;;;5032391;28;20212;-61
2023/10/29 03:11:08;;;;;;;5.80;3.60;;;13.00;99.90;;;;;;5014193;28;20257;-60
2023/10/29 03:13:35;;;;;;;11.10;3.67;;;13.00;99.90;;;;;;5031818;28;20266;-65
2023/10/29 03:16:03;;;;;;;6.28;3.50;;;13.00;99.90;;;;;;5031955;28;20269;-62
2023/10/29 03:18:29;;;;;;;5.07;3.35;;;13.00;99.90;;;;;;5032227;28;20281;-64
2023/10/29 03:20:55;;;;;;;5.57;3.22;;;13.00;99.90;;;;;;5032236;28;20614;-61
2023/10/29 03:23:21;;;;;;;5.57;3.50;;;13.00;99.90;;;;;;4998616;28;20214;-62
2023/10/29 03:25:47;;;;;;;6.72;3.15;;;13.10;99.90;;;;;;5014648;28;20274;-62
2023/10/29 03:28:13;;;;;;;5.88;3.22;;;13.10;99.90;;;;;;5014388;28;20184;-62
2023/10/29 03:30:41;;;;;;;7.75;3.10;;;13.10;99.90;;;;;;5032051;28;20176;-60
2023/10/29 03:33:07;;;;;;;7.18;3.20;;;13.10;99.90;;;;;;5013890;28;20291;-61
2023/10/29 03:35:33;;;;;;;6.40;3.30;;;13.10;99.90;;;;;;5014149;28;20220;-63
2023/10/29 03:38:00;;;;;;;4.68;3.10;;;13.10;99.90;;;;;;5013955;28;20179;-65
2023/10/29 03:40:26;;;;;;;6.28;2.90;;;13.10;99.90;;;;;;5031931;28;20184;-60
2023/10/29 03:42:52;;;;;;;4.50;2.63;;;13.10;99.90;;;;;;5014037;28;20203;-66
2023/10/29 03:45:18;;;;;;;4.15;2.30;;;13.10;99.90;;;;;;5035493;28;20200;-63
2023/10/29 03:47:44;;;;;;;5.65;2.53;;;13.10;99.90;;;;;;5017910;28;20628;-60
2023/10/29 03:50:10;;;;;;;4.90;2.67;;;13.10;99.90;;;;;;5017510;28;20183;-64
2023/10/29 03:52:36;;;;;;;5.68;2.60;;;13.10;99.90;;;;;;5035541;28;20636;-61
2023/10/29 03:55:02;;;;;;;5.53;2.50;;;13.10;99.90;;;;;;5017929;28;20216;-60
2023/10/29 03:57:28;;;;;;;4.68;2.35;;;13.00;99.90;;;;;;5035550;28;20192;-63
2023/10/29 03:59:54;;;;;;;5.40;2.30;;;13.10;99.90;;;;;;5018431;28;20230;-61
2023/10/29 04:02:20;;;;;;;7.95;2.58;;;13.00;99.90;;;;;;5017572;28;20183;-61
2023/10/29 04:04:46;;;;;;;8.00;2.70;;;13.00;99.90;;;;;;5018093;28;20274;-62
2023/10/29 04:07:12;;;;;;;5.82;2.50;;;13.00;99.90;;;;;;5017698;28;20750;-62
2023/10/29 04:09:40;;;;;;;4.43;2.10;;;13.00;99.90;;;;;;5036153;28;20258;-64
2023/10/29 04:12:06;;;;;;;4.50;2.28;;;13.10;99.90;;;;;;5035045;28;20207;-62
2023/10/29 04:14:32;;;;;;;3.95;2.10;;;13.10;99.90;;;;;;5035397;28;20199;-60
2023/10/29 04:16:58;;;;;;;6.35;1.90;;;13.10;99.90;;;;;;5017547;28;20273;-64
2023/10/29 04:19:24;;;;;;;7.65;2.10;;;13.20;99.90;;;;;;5034802;28;20209;-60
2023/10/29 04:21:50;;;;;;;2.70;2.17;;;13.20;99.90;;;;;;5017351;28;20225;-63
2023/10/29 04:24:16;;;;;;;5.00;2.10;;;13.20;99.90;;;;;;5035449;28;20469;-60
2023/10/29 04:26:43;;;;;;;4.75;1.92;;;13.20;99.90;;;;;;5034771;28;20586;-66
2023/10/29 04:29:09;;;;;;;3.67;1.90;;;13.20;99.90;;;;;;5034700;28;20556;-61
2023/10/29 04:31:35;;;;;;;4.30;1.83;;;13.30;99.90;;;;;;5035009;28;20208;-63
2023/10/29 04:34:00;;;;;;;4.60;1.98;;;13.30;99.90;;;;;;5035338;28;20223;-61
2023/10/29 04:36:26;;;;;;;6.93;1.90;;;13.30;99.90;;;;;;5034771;28;20212;-64
2023/10/29 04:38:52;;;;;;;4.20;2.38;;;13.30;99.90;;;;;;5034966;28;20190;-61
2023/10/29 04:41:18;;;;;;;3.55;1.85;;;13.30;99.90;;;;;;5034464;28;20234;-63
2023/10/29 04:43:44;;;;;;;2.95;1.80;;;13.40;99.90;;;;;;5016868;28;20227;-60
2023/10/29 04:46:10;;;;;;;3.95;1.65;;;13.40;99.90;;;;;;5034255;28;20184;-60
2023/10/29 04:48:40;;;;;;;2.60;1.30;;;13.40;99.90;;;;;;5016653;28;20528;-60
2023/10/29 04:51:07;;;;;;;2.30;1.20;;;13.40;99.90;;;;;;5034551;28;20246;-59
2023/10/29 04:53:34;;;;;;;1.60;1.10;;;13.40;99.90;;;;;;5034352;28;20326;-59
2023/10/29 04:56:00;;;;;;;1.85;1.17;;;13.40;99.90;;;;;;5033905;28;20219;-64
2023/10/29 04:58:26;;;;;;;2.35;1.20;;;13.30;99.90;;;;;;5034384;28;20180;-60
2023/10/29 05:00:53;;;;;;;3.30;1.10;;;13.30;99.90;;;;;;5034205;28;20180;-60
2023/10/29 05:03:19;;;;;;;2.38;1.10;;;13.30;99.90;;;;;;5016699;28;20192;-63
2023/10/29 05:05:45;;;;;;;2.85;1.15;;;13.20;99.90;;;;;;5034618;28;20207;-61
2023/10/29 05:08:11;;;;;;;2.22;1.13;;;13.20;99.90;;;;;;5016150;28;20722;-59
2023/10/29 05:10:36;;;;;;;2.20;1.15;;;13.20;99.90;;;;;;5017009;28;20194;-60
2023/10/29 05:13:02;;;;;;;3.25;1.00;;;13.20;99.90;;;;;;5034237;28;20621;-60
2023/10/29 05:15:29;;;;;;;2.15;1.00;;;13.20;99.90;;;;;;5016496;28;20769;-59
2023/10/29 05:17:55;;;;;;;3.47;1.10;;;13.10;99.90;;;;;;5033998;28;20187;-66
2023/10/29 05:20:21;;;;;;;1.85;1.00;;;13.10;99.90;;;;;;5034221;28;20176;-63
2023/10/29 05:22:47;;;;;;;4.72;1.10;;;13.00;99.90;;;;;;5034099;28;20643;-60
2023/10/29 05:25:13;;;;;;;3.45;1.13;;;13.00;99.90;;;;;;5034093;28;20183;-65
2023/10/29 05:27:39;;;;;;;2.10;1.20;;;13.00;99.90;;;;;;5015958;28;20204;-61
2023/10/29 05:30:06;;;;;;;2.92;1.20;;;12.90;99.90;;;;;;5034176;28;20517;-60
2023/10/29 05:32:32;;;;;;;2.83;1.30;;;12.80;99.90;;;;;;5032637;28;20176;-64
2023/10/29 05:34:58;;;;;;;5.05;1.70;;;12.70;99.90;;;;;;5033806;28;20282;-61
2023/10/29 05:37:25;;;;;;;5.70;1.30;;;12.70;99.90;;;;;;5016230;28;20211;-65
2023/10/29 05:39:51;;;;;;;5.10;1.50;;;12.60;99.90;;;;;;5016493;28;20180;-61
2023/10/29 05:42:18;;;;;;;2.22;1.35;;;12.60;99.90;;;;;;5015998;28;20180;-63
2023/10/29 05:44:44;;;;;;;2.95;1.20;;;12.60;99.90;;;;;;5033535;28;20246;-62
2023/10/29 05:47:10;;;;;;;2.55;1.25;;;12.50;99.90;;;;;;5033811;28;20663;-60
2023/10/29 05:49:35;;;;;;;3.90;1.35;;;12.50;99.90;;;;;;5033445;28;20186;-64
2023/10/29 05:52:01;;;;;;;2.40;1.20;;;12.50;99.90;;;;;;5033748;28;20184;-64
2023/10/29 05:54:27;;;;;;;5.28;1.30;;;12.50;99.90;;;;;;5033632;28;20184;-63
2023/10/29 05:56:53;;;;;;;1.92;1.20;;;12.40;99.90;;;;;;5033084;28;20261;-61
2023/10/29 05:59:20;;;;;;;5.22;1.33;;;12.40;99.90;;;;;;5033250;28;20176;-67
2023/10/29 06:01:46;;;;;;;3.10;1.40;;;12.40;99.90;;;;;;5033665;28;20182;-63
2023/10/29 06:04:12;;;;;;;2.60;1.13;;;12.40;99.90;;;;;;5033093;28;20195;-61
2023/10/29 06:06:38;;;;;;;1.92;1.30;;;12.40;99.90;;;;;;5032244;28;20564;-63
2023/10/29 06:09:04;;;;;;;5.05;1.48;;;12.40;99.90;;;;;;5015315;28;20604;-61
2023/10/29 06:11:30;;;;;;;3.65;1.50;;;12.50;99.90;;;;;;5015595;28;20267;-61
2023/10/29 06:13:57;;;;;;;5.07;1.20;;;12.50;99.90;;;;;;4983180;28;20204;-60
2023/10/29 06:16:24;;;;;;;4.28;1.50;;;12.50;99.90;;;;;;5032820;28;20680;-62
2023/10/29 06:18:51;;;;;;;3.13;1.70;;;12.60;99.90;;;;;;5033043;28;20529;-64
2023/10/29 06:21:20;;;;;;;4.97;1.52;;;12.60;99.90;;;;;;5033484;28;20205;-60
2023/10/29 06:23:46;;;;;;;5.78;1.60;;;12.70;99.90;;;;;;5031566;28;20263;-61
2023/10/29 06:26:12;;;;;;;5.95;1.73;;;12.70;99.90;;;;;;5032638;28;20176;-61
2023/10/29 06:28:38;;;;;;;4.45;1.48;;;12.70;99.90;;;;;;4999059;28;20278;-61
2023/10/29 06:31:04;;;;;;;4.88;1.80;;;12.70;99.90;;;;;;5032726;28;20188;-66
2023/10/29 06:33:30;;;;;;;4.03;1.65;;;12.70;99.90;;;;;;5032573;28;20525;-63
2023/10/29 06:36:00;;;;;;;5.60;1.58;;;12.80;99.90;;;;;;5032791;28;20253;-60
2023/10/29 06:38:26;;;;;;;4.45;1.45;;;12.80;99.90;;;;;;5032899;28;20180;-64
2023/10/29 06:40:52;;;;;;;3.28;1.88;;;12.80;99.90;;;;;;5032921;28;20200;-60
2023/10/29 06:43:17;;;;;;;4.88;1.65;;;12.80;99.90;;;;;;5032895;28;20184;-63
2023/10/29 06:45:43;;;;;;;4.22;1.40;;;12.80;99.90;;;;;;5032697;28;20176;-61
2023/10/29 06:48:09;;;;;;;7.97;1.60;;;12.80;99.90;;;;;;5015196;28;20271;-63
2023/10/29 06:50:36;;;;;;;4.72;1.38;;;12.80;99.90;;;;;;5032668;28;20184;-61
2023/10/29 06:53:02;;;;;;;4.50;1.33;;;12.80;99.90;;;;;;5014852;28;20575;-63
2023/10/29 06:55:28;;;;;;;5.00;1.60;;;12.80;99.90;;;;;;5014825;28;20323;-62
2023/10/29 06:57:54;;;;;;;4.57;1.42;;;12.90;99.90;;;;;;5032118;28;20259;-64
2023/10/29 07:00:20;;;;;;;12.85;1.80;;;12.90;99.90;;;;;;5014827;28;20180;-62
2023/10/29 07:02:47;;;;;;;5.03;1.48;;;12.90;99.90;;;;;;5014595;28;20206;-65
2023/10/29 07:05:12;;;;;;;5.60;1.50;;;12.90;99.90;;;;;;5032128;28;20180;-65
2023/10/29 07:07:39;;;;;;;4.07;1.40;;;12.90;99.90;;;;;;5032159;28;20187;-60
2023/10/29 07:10:06;;;;;;;4.22;1.67;;;12.90;99.90;;;;;;5032945;28;20172;-61
2023/10/29 07:12:32;;;;;;;6.15;1.55;;;12.90;99.90;;;;;;5014663;28;20179;-60
2023/10/29 07:14:58;;;;;;;4.55;1.35;;;13.00;99.90;;;;;;5032049;28;20188;-61
2023/10/29 07:17:24;;;;;;;4.28;1.40;;;13.00;99.90;;;;;;5032082;28;20589;-62
2023/10/29 07:19:54;;;;;;;3.88;1.50;;;13.10;99.90;;;;;;5032190;28;20176;-61
2023/10/29 07:22:21;;;;;;;3.58;1.33;;;13.10;99.90;;;;;;5032224;28;20191;-62
2023/10/29 07:24:46;;;;;;;3.63;1.48;;;13.10;99.90;;;;;;5032187;28;20183;-60
2023/10/29 07:27:12;;;;;;;4.72;1.30;;;13.20;99.90;;;;;;5031910;28;20301;-65
2023/10/29 07:29:38;;;;;;;6.03;1.40;;;13.30;99.90;;;;;;5014562;28;20188;-63
2023/10/29 07:32:04;;;;;;;4.43;1.30;;;13.30;99.90;;;;;;5031945;28;20203;-61
2023/10/29 07:34:30;;;;;;;2.60;1.17;;;13.30;99.90;;;;;;5031739;28;20180;-64
2023/10/29 07:36:56;;;;;;;3.95;1.33;;;13.40;99.90;;;;;;5031676;28;20207;-63
2023/10/29 07:39:22;;;;;;;4.40;1.10;;;13.40;99.90;;;;;;5031892;28;20176;-65
2023/10/29 07:41:48;;;;;;;5.22;1.20;;;13.50;99.90;;;;;;5014011;28;20183;-62
2023/10/29 07:44:14;;;;;;;2.95;1.30;;;13.50;99.90;;;;;;5031690;28;20279;-60
2023/10/29 07:46:40;;;;;;;3.50;1.20;;;13.50;99.90;;;;;;5031811;28;20266;-61
2023/10/29 07:49:06;;;;;;;5.53;1.15;;;13.60;99.90;;;;;;5031300;28;20180;-62
2023/10/29 07:51:32;;;;;;;3.15;1.20;;;13.60;99.90;;;;;;5030323;28;20245;-61
2023/10/29 07:53:58;;;;;;;2.72;1.30;;;13.60;99.90;;;;;;5014006;28;20713;-66
2023/10/29 07:56:24;;;;;;;7.13;1.30;;;13.60;99.90;;;;;;5031160;28;20212;-59
2023/10/29 07:58:51;;;;;;;5.07;1.40;;;13.70;99.90;;;;;;5031748;28;20601;-61
2023/10/29 08:01:18;;;;;;;3.47;1.17;;;13.80;99.90;;;;;;5014124;28;20229;-61
2023/10/29 08:03:45;;;;;;;5.32;1.33;;;13.80;99.90;;;;;;5031401;28;20203;-64
2023/10/29 08:06:13;;;;;;;3.60;1.10;;;13.80;99.90;;;;;;5013780;28;20188;-61
2023/10/29 08:08:39;;;;;;;5.93;1.38;;;13.80;99.90;;;;;;5031574;28;20266;-62
2023/10/29 08:11:05;;;;;;;4.60;1.50;;;13.80;99.90;;;;;;5031250;28;20176;-61
2023/10/29 08:13:32;;;;;;;4.57;1.73;;;13.80;99.90;;;;;;5013381;28;20195;-62
2023/10/29 08:15:59;;;;;;;6.07;1.38;;;13.80;99.90;;;;;;5031468;28;20211;-64
2023/10/29 08:18:25;;;;;;;5.72;1.30;;;13.80;99.90;;;;;;5031365;28;20184;-61
2023/10/29 08:20:50;;;;;;;4.30;1.15;;;13.90;99.90;;;;;;5031225;28;20179;-61
2023/10/29 08:23:16;;;;;;;3.83;1.50;;;13.90;99.90;;;;;;5031093;28;20270;-62
2023/10/29 08:25:42;;;;;;;5.32;1.33;;;14.00;99.90;;;;;;5031580;28;20659;-61
2023/10/29 08:28:08;;;;;;;3.08;1.50;;;14.00;99.90;;;;;;5013960;28;20191;-59
2023/10/29 08:30:35;;;;;;;6.10;1.50;;;14.00;99.90;;;;;;5016034;28;20327;-64
2023/10/29 08:33:01;;;;;;;3.95;1.30;;;14.00;99.90;;;;;;5035121;28;20260;-64
2023/10/29 08:35:27;;;;;;;4.47;1.42;;;14.10;99.90;;;;;;5034520;28;20215;-55
2023/10/29 08:37:53;;;;;;;7.22;1.50;;;14.10;99.90;;;;;;5034536;28;20491;-64
2023/10/29 08:40:19;;;;;;;4.85;1.42;;;14.10;99.90;;;;;;5016965;28;20179;-63
2023/10/29 08:42:45;;;;;;;7.95;1.40;;;14.20;99.90;;;;;;5034896;28;20176;-63
2023/10/29 08:45:12;;;;;;;7.78;1.50;;;14.20;99.90;;;;;;5016928;28;20631;-66
2023/10/29 08:47:38;;;;;;;5.78;1.30;;;14.20;99.90;;;;;;5034485;28;20763;-60
2023/10/29 08:50:10;;;;;;;5.95;1.60;;;14.20;99.90;;;;;;5016482;28;20172;-61
2023/10/29 08:52:37;;;;;;;5.25;1.45;;;14.20;99.90;;;;;;5034157;28;20196;-60
2023/10/29 08:55:03;;;;;;;5.97;1.50;;;14.20;99.90;;;;;;5034675;28;20175;-65
2023/10/29 08:57:30;;;;;;;9.80;1.58;;;14.20;99.90;;;;;;5034904;28;20196;-64
2023/10/29 08:59:56;;;;;;;3.53;1.17;;;14.10;99.90;;;;;;5034725;28;20230;-64
2023/10/29 09:02:21;;;;;;;7.03;1.20;;;14.10;99.90;;;;;;5034894;28;20188;-60
2023/10/29 09:04:52;;;;;;;6.30;1.40;;;14.10;99.90;;;;;;5016895;28;20200;-62
2023/10/29 09:07:18;;;;;;;4.85;1.38;;;14.10;99.90;;;;;;5034722;28;20183;-62
2023/10/29 09:09:44;;;;;;;3.63;1.30;;;14.10;99.90;;;;;;5034494;28;20318;-61
2023/10/29 09:12:10;;;;;;;5.47;1.17;;;14.10;99.90;;;;;;5034745;28;20245;-66
2023/10/29 09:14:36;;;;;;;7.97;1.50;;;14.10;99.90;;;;;;5034591;28;20196;-62
2023/10/29 09:17:03;;;;;;;3.85;1.30;;;14.20;99.90;;;;;;5033681;28;20207;-65
2023/10/29 09:19:29;;;;;;;6.10;1.40;;;14.20;99.90;;;;;;5016059;28;20560;-64
2023/10/29 09:21:55;;;;;;;5.13;1.30;;;14.30;99.90;;;;;;5034250;28;20180;-62
2023/10/29 09:24:21;;;;;;;5.05;1.23;;;14.30;99.90;;;;;;5034082;28;20194;-59
2023/10/29 09:26:47;;;;;;;3.15;1.23;;;14.40;99.90;;;;;;5033742;28;20179;-60
2023/10/29 09:29:13;;;;;;;6.15;1.65;;;14.40;99.90;;;;;;5034300;28;20674;-65
2023/10/29 09:31:40;;;;;;;3.65;1.20;;;14.50;99.90;;;;;;5033705;28;20222;-61
2023/10/29 09:34:06;;;;;;;5.63;1.45;;;14.60;99.90;;;;;;5033747;28;20180;-64
2023/10/29 09:36:32;;;;;;;4.65;1.25;;;14.70;99.90;;;;;;5034005;28;20293;-71
2023/10/29 09:38:58;;;;;;;4.97;1.40;;;14.70;99.90;;;;;;5016372;28;20188;-62
2023/10/29 09:41:24;;;;;;;3.80;1.40;;;14.80;99.90;;;;;;5014844;28;20184;-63
2023/10/29 09:43:53;;;;;;;2.40;1.13;;;14.80;99.90;;;;;;5015933;28;20274;-65
2023/10/29 09:46:23;;;;;;;7.55;1.40;;;14.90;99.90;;;;;;5033461;28;20188;-65
2023/10/29 09:48:51;;;;;;;6.93;1.70;;;15.00;99.90;;;;;;5033630;28;20251;-60
2023/10/29 09:51:20;;;;;;;6.35;1.75;;;15.00;99.90;;;;;;5032931;28;20191;-61
2023/10/29 09:53:46;;;;;;;5.68;1.35;;;15.10;99.90;;;;;;5015792;28;20176;-65
2023/10/29 09:56:14;;;;;;;5.93;1.60;;;15.10;99.90;;;;;;5033022;28;20211;-60
2023/10/29 09:58:41;;;;;;;5.90;1.40;;;15.20;99.90;;;;;;5033216;28;20187;-60
2023/10/29 10:01:08;;;;;;;7.93;1.60;;;15.30;99.90;;;;;;5031606;28;20515;-63
2023/10/29 10:03:34;;;;;;;9.07;1.75;;;15.30;99.90;;;;;;5033615;28;20192;-64
2023/10/29 10:06:00;;;;;;;4.93;1.60;;;15.30;99.90;;;;;;5032881;28;20211;-61
2023/10/29 10:08:27;;;;;;;6.43;1.60;;;15.30;99.90;;;;;;5033097;28;20232;-60
2023/10/29 10:10:54;;;;;;;5.32;1.08;;;15.30;99.90;;;;;;5033093;28;20172;-64
2023/10/29 10:13:43;;;;;;;4.40;1.30;;;15.30;99.90;;;;;;5015045;28;20210;-66
2023/10/29 10:16:12;;;;;;;6.00;1.60;;;15.30;99.90;;;;;;5032998;28;20601;-61
2023/10/29 10:18:58;;;;;;;6.88;1.60;;;15.20;99.90;;;;;;5032487;28;20180;-66
2023/10/29 10:21:47;;;;;;;4.85;1.60;;;15.30;99.90;;;;;;5032959;28;20163;-60
2023/10/29 10:24:14;;;;;;;7.22;1.85;;;15.30;99.90;;;;;;5032885;28;20577;-63
2023/10/29 10:26:40;;;;;;;4.90;1.42;;;15.40;99.90;;;;;;5032560;28;20176;-60
2023/10/29 10:29:08;;;;;;;5.82;1.38;;;15.40;99.90;;;;;;5032720;28;20265;-65
2023/10/29 10:31:35;;;;;;;8.68;1.80;;;15.40;99.90;;;;;;5032852;28;20552;-63
2023/10/29 10:34:15;;;;;;;7.05;1.85;;;15.40;99.90;;;;;;5032950;28;20305;-66
2023/10/29 10:36:46;;;;;;;5.82;1.67;;;15.50;99.90;;;;;;5015307;28;20679;-60
2023/10/29 10:39:12;;;;;;;5.30;1.70;;;15.40;99.90;;;;;;5032541;28;20191;-62
2023/10/29 10:41:42;;;;;;;5.93;1.40;;;15.40;99.90;;;;;;5032171;28;20218;-66
2023/10/29 10:44:13;;;;;;;6.50;1.67;;;15.40;99.90;;;;;;5032566;28;20199;-62
2023/10/29 10:46:50;;;;;;;8.38;1.70;;;15.30;99.90;;;;;;5032593;28;20168;-60
2023/10/29 10:49:17;;;;;;;3.78;1.42;;;15.30;99.90;;;;;;5032663;28;20246;-60
2023/10/29 10:51:44;;;;;;;4.63;1.50;;;15.30;99.90;;;;;;5032620;28;20188;-61
2023/10/29 10:54:11;;;;;;;6.05;1.52;;;15.30;99.90;;;;;;5031767;28;20282;-65
2023/10/29 10:56:37;;;;;;;11.50;1.83;;;15.30;99.90;;;;;;5032070;28;20211;-62
2023/10/29 10:59:05;;;;;;;8.80;1.83;;;15.40;99.90;;;;;;5031757;28;20267;-67
2023/10/29 11:01:32;;;;;;;6.15;1.80;;;15.50;99.90;;;;;;5014050;28;20180;-62
2023/10/29 11:04:00;;;;;;;7.82;1.92;;;15.60;99.90;;;;;;5014324;28;20569;-65
2023/10/29 11:06:26;;;;;;;7.78;1.70;;;15.60;99.90;;;;;;5014331;28;20191;-63
2023/10/29 11:08:53;;;;;;;5.30;1.52;;;15.70;99.90;;;;;;5032137;28;20292;-66
2023/10/29 11:11:26;;;;;;;6.68;1.20;;;15.80;99.90;;;;;;5031702;28;20263;-63
2023/10/29 11:14:12;;;;;;;12.77;2.10;;;15.80;99.90;;;;;;5032215;28;20232;-64
2023/10/29 11:17:05;;;;;;;4.28;1.48;;;15.80;99.90;;;;;;5031646;28;20682;-62
2023/10/29 11:19:44;;;;;;;9.55;1.65;;;15.90;99.90;;;;;;5030594;28;20195;-62
2023/10/29 11:22:16;;;;;;;8.07;1.92;;;15.90;99.90;;;;;;5013993;28;20183;-65
2023/10/29 11:24:43;;;;;;;8.45;2.00;;;15.90;99.90;;;;;;5031913;28;20633;-66
2023/10/29 11:27:34;;;;;;;10.95;3.08;;;15.90;99.90;;;;;;5031599;28;20186;-62
2023/10/29 11:30:30;;;;;;;7.93;2.20;;;16.00;99.90;;;;;;5031321;28;20181;-69
2023/10/29 11:33:17;;;;;;;7.55;2.13;;;16.00;99.90;;;;;;5013709;28;20198;-65
2023/10/29 11:35:43;;;;;;;8.25;2.00;;;16.00;99.90;;;;;;5031889;28;20210;-64
2023/10/29 11:38:36;;;;;;;8.02;2.17;;;16.00;99.90;;;;;;5032203;28;20180;-62
2023/10/29 11:41:33;;;;;;;9.40;2.38;;;16.00;99.90;;;;;;5032094;28;20168;-64
2023/10/29 11:44:18;;;;;;;13.10;2.65;;;16.00;99.90;;;;;;5013892;28;20187;-61
2023/10/29 11:46:56;;;;;;;9.27;2.50;;;16.10;99.90;;;;;;5031274;28;20204;-63
2023/10/29 11:49:26;;;;;;;7.97;1.90;;;16.10;99.90;;;;;;5031818;28;20200;-68
2023/10/29 11:52:01;;;;;;;7.63;2.05;;;16.10;99.90;;;;;;5031364;28;20187;-62
2023/10/29 11:54:32;;;;;;;7.30;2.00;;;16.00;99.90;;;;;;5031343;28;20585;-69
2023/10/29 11:56:59;;;;;;;8.45;2.40;;;15.90;99.90;;;;;;5013522;28;20195;-66
2023/10/29 11:59:26;;;;;;;7.72;2.03;;;15.80;99.90;;;;;;5031417;28;20207;-62
2023/10/29 12:01:53;;;;;;;8.75;2.30;;;15.80;99.90;;;;;;5013798;28;20629;-65
2023/10/29 12:04:19;;;;;;;7.20;2.05;;;15.70;99.90;;;;;;5031850;28;20230;-68
2023/10/29 12:06:48;;;;;;;11.15;2.20;;;15.80;99.90;;;;;;5034938;28;20606;-67
2023/10/29 12:09:25;;;;;;;8.95;2.03;;;15.80;99.90;;;;;;5035458;28;20252;-70
2023/10/29 12:11:53;;;;;;;12.30;2.42;;;15.80;99.90;;;;;;5035154;28;20163;-67
2023/10/29 12:14:45;;;;;;;9.82;2.40;;;15.80;99.90;;;;;;5035353;28;20207;-66
2023/10/29 12:17:12;;;;;;;6.75;2.15;;;15.70;99.90;;;;;;5035473;28;20191;-62
2023/10/29 12:19:41;;;;;;;8.77;2.60;;;15.70;99.90;;;;;;5034852;28;20195;-67
2023/10/29 12:22:27;;;;;;;9.20;2.00;;;15.70;99.90;;;;;;5033530;28;20188;-65
2023/10/29 12:24:55;;;;;;;5.97;1.98;;;15.70;99.90;;;;;;5035661;28;20168;-63
2023/10/29 12:27:22;;;;;;;10.65;2.35;;;15.60;99.90;;;;;;5034762;28;20176;-65
2023/10/29 12:29:49;;;;;;;11.48;2.53;;;15.60;99.90;;;;;;5034658;28;20191;-64
2023/10/29 12:32:20;;;;;;;10.60;1.92;;;15.60;99.90;;;;;;4984578;28;20263;-64
2023/10/29 12:34:50;;;;;;;9.05;1.85;;;15.60;99.90;;;;;;5035231;28;20246;-64
2023/10/29 12:37:30;;;;;;;9.95;2.30;;;15.60;99.90;;;;;;5016731;28;20357;-69
2023/10/29 12:40:00;;;;;;;11.10;2.40;;;15.60;99.90;;;;;;5034721;28;20668;-68
2023/10/29 12:42:47;;;;;;;11.07;2.17;;;15.60;99.90;;;;;;5034704;28;20171;-62
2023/10/29 12:45:26;;;;;;;11.82;2.28;;;15.60;99.90;;;;;;5016971;28;20710;-62
2023/10/29 12:48:12;;;;;;;6.88;1.70;;;15.60;99.90;;;;;;5034755;28;20200;-67